createdAt,value
2023-05-19T00:01:29.582Z,1.60
2023-05-19T00:06:33.376Z,1.90
2023-05-19T00:11:38.522Z,2.00
2023-05-19T00:16:42.917Z,2.30
2023-05-19T00:21:45.817Z,2.10
2023-05-19T00:26:48.923Z,2.30
2023-05-19T00:31:51.985Z,2.40
2023-05-19T00:36:55.045Z,2.30
2023-05-19T00:41:58.053Z,2.30
2023-05-19T00:47:01.541Z,2.50
2023-05-19T00:52:06.817Z,2.30
2023-05-19T00:57:09.728Z,2.30
2023-05-19T01:02:13.973Z,3.00
2023-05-19T01:07:17.078Z,3.30
2023-05-19T01:12:20.094Z,2.70
2023-05-19T01:17:34.630Z,2.10
2023-05-19T01:23:02.352Z,2.10
2023-05-19T01:28:43.354Z,1.90
2023-05-19T01:33:47.782Z,1.90
2023-05-19T01:38:54.383Z,2.20
2023-05-19T01:43:58.590Z,1.90
2023-05-19T01:49:02.357Z,1.90
2023-05-19T01:54:05.356Z,2.00
2023-05-19T01:59:23.651Z,1.70
2023-05-19T02:04:40.821Z,2.00
2023-05-19T02:09:53.792Z,2.00
2023-05-19T02:15:21.683Z,2.00
2023-05-19T02:20:24.712Z,2.10
2023-05-19T02:25:27.798Z,2.10
2023-05-19T02:30:32.398Z,1.90
2023-05-19T02:35:35.579Z,1.90
2023-05-19T02:40:38.551Z,2.20
2023-05-19T02:45:41.462Z,2.00
2023-05-19T02:50:44.457Z,2.60
2023-05-19T02:55:47.471Z,2.20
2023-05-19T03:00:51.700Z,2.20
2023-05-19T03:05:54.916Z,1.90
2023-05-19T03:10:58.331Z,2.10
2023-05-19T03:16:02.332Z,2.20
2023-05-19T03:21:06.293Z,1.90
2023-05-19T03:26:09.311Z,2.10
2023-05-19T03:31:13.438Z,2.30
2023-05-19T03:36:16.441Z,2.40
2023-05-19T03:41:19.649Z,2.00
2023-05-19T03:46:22.652Z,2.10
2023-05-19T03:51:26.136Z,2.30
2023-05-19T03:56:29.137Z,2.00
2023-05-19T04:01:32.089Z,2.30
2023-05-19T04:06:36.651Z,2.30
2023-05-19T04:11:40.557Z,2.00
2023-05-19T04:16:44.307Z,2.20
2023-05-19T04:21:47.298Z,2.00
2023-05-19T04:26:50.404Z,1.90
2023-05-19T04:31:53.405Z,1.90
2023-05-19T04:36:56.423Z,1.80
2023-05-19T04:42:00.451Z,1.60
2023-05-19T04:47:03.633Z,1.90
2023-05-19T04:52:11.373Z,2.10
2023-05-19T04:57:14.621Z,2.00
2023-05-19T05:02:17.816Z,1.80
2023-05-19T05:07:24.173Z,2.30
2023-05-19T05:12:27.873Z,1.90
2023-05-19T05:17:32.353Z,2.00
2023-05-19T05:22:36.270Z,2.00
2023-05-19T05:27:39.372Z,1.80
2023-05-19T05:32:42.561Z,2.00
2023-05-19T05:37:46.042Z,2.20
2023-05-19T05:42:49.124Z,2.00
2023-05-19T05:47:52.606Z,2.10
2023-05-19T05:52:56.168Z,1.90
2023-05-19T05:58:02.140Z,2.30
2023-05-19T06:03:24.598Z,2.20
2023-05-19T06:08:28.119Z,2.20
2023-05-19T06:13:31.429Z,2.20
2023-05-19T06:18:34.849Z,1.70
2023-05-19T06:23:38.404Z,1.80
2023-05-19T06:28:41.478Z,1.80
2023-05-19T06:33:44.831Z,1.70
2023-05-19T06:38:48.205Z,1.80
2023-05-19T06:43:51.426Z,1.90
2023-05-19T06:48:54.632Z,2.00
2023-05-19T06:53:57.635Z,2.20
2023-05-19T06:59:00.957Z,2.10
2023-05-19T07:04:04.152Z,2.00
2023-05-19T07:09:07.576Z,2.00
2023-05-19T07:14:11.204Z,2.00
2023-05-19T07:19:14.239Z,1.60
2023-05-19T07:24:17.777Z,1.90
2023-05-19T07:29:20.933Z,2.00
2023-05-19T07:34:24.904Z,2.00
2023-05-19T07:39:30.012Z,2.00
2023-05-19T07:44:33.023Z,1.90
2023-05-19T07:49:36.085Z,1.90
2023-05-19T07:54:39.135Z,1.80
2023-05-19T07:59:42.452Z,1.70
2023-05-19T08:04:46.255Z,1.90
2023-05-19T08:09:49.284Z,1.80
2023-05-19T08:14:52.852Z,2.10
2023-05-19T08:19:55.911Z,1.70
2023-05-19T08:24:58.776Z,1.70
2023-05-19T08:30:01.760Z,1.70
2023-05-19T08:35:05.140Z,1.70
2023-05-19T08:40:12.068Z,1.60
2023-05-19T08:45:15.453Z,1.60
2023-05-19T08:50:25.661Z,1.70
2023-05-19T08:56:11.221Z,1.70
2023-05-19T09:01:18.172Z,1.70
2023-05-19T09:06:21.858Z,1.40
2023-05-19T09:11:24.970Z,1.30
2023-05-19T09:16:29.926Z,1.30
2023-05-19T09:21:33.947Z,1.60
2023-05-19T09:26:38.693Z,1.70
2023-05-19T09:31:56.368Z,1.50
2023-05-19T09:37:00.463Z,1.70
2023-05-19T09:42:04.953Z,1.50
2023-05-19T09:47:09.882Z,1.40
2023-05-19T09:52:16.767Z,1.40
2023-05-19T09:57:27.264Z,1.50
2023-05-19T10:02:31.748Z,1.40
2023-05-19T10:07:35.833Z,1.30
2023-05-19T10:12:39.739Z,1.30
2023-05-19T10:17:44.322Z,1.40
2023-05-19T10:22:48.128Z,1.30
2023-05-19T10:28:01.615Z,1.50
2023-05-19T10:33:10.658Z,1.20
2023-05-19T10:38:38.817Z,1.60
2023-05-19T10:48:55.962Z,1.50
2023-05-19T10:54:03.037Z,1.30
2023-05-19T10:59:06.309Z,1.70
2023-05-19T11:04:15.164Z,1.70
2023-05-19T11:09:22.532Z,1.50
2023-05-19T11:14:32.858Z,1.50
2023-05-19T11:19:36.502Z,1.80
2023-05-19T11:24:44.845Z,1.70
2023-05-19T11:29:48.589Z,1.70
2023-05-19T11:34:52.773Z,1.60
2023-05-19T11:39:55.967Z,1.70
2023-05-19T11:44:59.075Z,1.40
2023-05-19T11:50:02.186Z,1.60
2023-05-19T11:55:06.852Z,2.00
2023-05-19T12:00:11.556Z,2.00
2023-05-19T12:05:26.139Z,3.10
2023-05-19T12:10:31.918Z,3.50
2023-05-19T12:15:35.982Z,2.40
2023-05-19T12:20:39.662Z,2.20
2023-05-19T12:25:42.623Z,1.80
2023-05-19T12:30:52.235Z,1.70
2023-05-19T12:35:55.748Z,1.80
2023-05-19T12:41:00.307Z,1.90
2023-05-19T12:46:13.635Z,1.70
2023-05-19T12:51:18.201Z,2.20
2023-05-19T12:56:22.833Z,2.10
2023-05-19T13:01:26.188Z,1.70
2023-05-19T13:06:29.369Z,2.00
2023-05-19T13:11:32.388Z,2.00
2023-05-19T13:16:35.408Z,2.00
2023-05-19T13:21:38.284Z,1.90
2023-05-19T13:26:42.010Z,1.90
2023-05-19T13:31:45.237Z,1.80
2023-05-19T13:36:49.207Z,1.80
2023-05-19T13:41:52.362Z,1.60
2023-05-19T13:46:55.445Z,1.60
2023-05-19T13:52:00.227Z,1.40
2023-05-19T13:57:03.330Z,1.60
2023-05-19T14:02:08.065Z,1.50
2023-05-19T14:07:11.189Z,1.80
2023-05-19T14:12:14.191Z,1.90
2023-05-19T14:17:17.092Z,1.80
2023-05-19T14:22:20.132Z,1.50
2023-05-19T14:27:23.016Z,1.40
2023-05-19T14:32:27.882Z,1.50
2023-05-19T14:37:32.621Z,1.60
2023-05-19T14:42:35.614Z,2.10
2023-05-19T14:47:38.542Z,1.80
2023-05-19T14:52:41.618Z,1.70
2023-05-19T14:57:44.663Z,1.50
2023-05-19T15:02:48.264Z,1.50
2023-05-19T15:07:51.554Z,1.70
2023-05-19T15:12:54.574Z,1.50
2023-05-19T15:17:57.673Z,1.90
2023-05-19T15:23:00.799Z,1.50
2023-05-19T15:28:04.003Z,1.80
2023-05-19T15:33:07.067Z,1.60
2023-05-19T15:38:10.115Z,1.80
2023-05-19T15:43:13.466Z,1.70
2023-05-19T15:48:16.665Z,1.60
2023-05-19T15:53:20.685Z,1.70
2023-05-19T15:58:23.787Z,1.70
2023-05-19T16:03:27.549Z,2.20
2023-05-19T16:08:31.343Z,1.90
2023-05-19T16:13:34.556Z,1.60
2023-05-19T16:18:37.806Z,1.50
2023-05-19T16:23:40.972Z,1.50
2023-05-19T16:28:44.260Z,1.50
2023-05-19T16:33:47.492Z,1.80
2023-05-19T16:38:50.497Z,1.60
2023-05-19T16:43:53.503Z,1.60
2023-05-19T16:48:56.818Z,1.60
2023-05-19T16:54:00.446Z,2.00
2023-05-19T16:59:03.448Z,1.90
2023-05-19T17:04:07.784Z,2.10
2023-05-19T17:09:10.786Z,2.00
2023-05-19T17:14:14.415Z,1.70
2023-05-19T17:19:17.439Z,2.00
2023-05-19T17:24:20.521Z,2.00
2023-05-19T17:29:23.636Z,2.00
2023-05-19T17:34:26.749Z,1.80
2023-05-19T17:39:29.745Z,2.20
2023-05-19T17:44:33.058Z,2.10
2023-05-19T17:49:36.198Z,2.10
2023-05-19T17:54:39.411Z,2.30
2023-05-19T17:59:42.818Z,1.90
2023-05-19T18:04:46.457Z,2.50
2023-05-19T18:09:51.678Z,2.10
2023-05-19T18:14:55.300Z,2.20
2023-05-19T18:19:59.025Z,2.30
2023-05-19T18:25:02.148Z,2.30
2023-05-19T18:30:06.522Z,2.20
2023-05-19T18:35:10.065Z,2.40
2023-05-19T18:40:13.314Z,2.80
2023-05-19T18:45:16.317Z,2.70
2023-05-19T18:50:19.624Z,2.90
2023-05-19T18:55:23.537Z,3.00
2023-05-19T19:00:28.290Z,3.20
2023-05-19T19:05:31.509Z,3.60
2023-05-19T19:10:37.293Z,3.50
2023-05-19T19:15:40.287Z,3.40
2023-05-19T19:20:43.293Z,3.60
2023-05-19T19:25:46.404Z,3.20
2023-05-19T19:30:49.799Z,3.00
2023-05-19T19:35:52.722Z,3.20
2023-05-19T19:40:55.743Z,3.30
2023-05-19T19:46:04.609Z,2.70
2023-05-19T19:51:07.794Z,2.80
2023-05-19T19:56:10.901Z,2.30
2023-05-19T20:01:13.905Z,2.50
2023-05-19T20:06:17.019Z,2.50
2023-05-19T20:11:23.113Z,2.50
2023-05-19T20:16:26.237Z,2.70
2023-05-19T20:21:29.309Z,2.40
2023-05-19T20:26:32.498Z,2.70
2023-05-19T20:31:35.633Z,2.80
2023-05-19T20:36:38.634Z,2.60
2023-05-19T20:41:41.644Z,2.60
2023-05-19T20:46:44.653Z,2.10
2023-05-19T20:51:47.860Z,2.90
2023-05-19T20:56:52.003Z,2.80
2023-05-19T21:01:55.001Z,2.70
2023-05-19T21:06:58.148Z,3.20
2023-05-19T21:12:01.361Z,2.60
2023-05-19T21:17:04.906Z,2.80
2023-05-19T21:22:07.950Z,2.80
2023-05-19T21:27:11.781Z,3.10
2023-05-19T21:32:14.882Z,2.70
2023-05-19T21:37:17.895Z,2.90
2023-05-19T21:42:20.895Z,3.00
2023-05-19T21:47:23.741Z,3.00
2023-05-19T21:52:26.704Z,3.00
2023-05-19T21:57:29.611Z,2.90
2023-05-19T22:02:32.538Z,2.90
2023-05-19T22:07:36.027Z,2.90
2023-05-19T22:12:39.039Z,2.90
2023-05-19T22:17:42.773Z,2.70
2023-05-19T22:22:45.870Z,2.90
2023-05-19T22:27:48.887Z,3.00
2023-05-19T22:32:51.809Z,3.30
2023-05-19T22:37:54.753Z,2.90
2023-05-19T22:42:57.796Z,2.80
2023-05-19T22:48:00.948Z,3.00
2023-05-19T22:53:03.906Z,3.10
2023-05-19T22:58:06.808Z,2.80
2023-05-19T23:03:09.758Z,2.80
2023-05-19T23:08:12.823Z,2.60
2023-05-19T23:13:15.829Z,2.80
2023-05-19T23:18:18.839Z,2.40
2023-05-19T23:23:21.848Z,2.40
2023-05-19T23:28:24.862Z,2.50
2023-05-19T23:33:27.860Z,2.30
2023-05-19T23:38:30.866Z,2.50
2023-05-19T23:43:33.886Z,2.20
2023-05-19T23:48:36.882Z,2.20
2023-05-19T23:53:39.888Z,2.30
2023-05-19T23:58:42.790Z,2.40
